Mc Kean, Pennsylvania
Current Conditions -  °F | °C
As of 11:51 AM on Wednesday 26 Nov 2014 (Local Time) from KERI Reporting Station
Overcast Overcast  
Wind Chill: 30°   Ceiling: 4400
Heat Index: 36°   Visibility: 10mi
Dew Point: 25°   Wind: 7mph
Humidity: 64%   Direction: 60°ENE
Pressure: 30.11"   Gusts: NA
Location:  41.9793°N, 80.1405°W
Report Text: KERI 261651Z 06006KT 10SM OVC044 02/M04 A3011 RMK AO2 SLP203 T00221039
Loading
Personal Weather Stations






























Interactive Weather Map New forecast layout! Learn more

10-Day Weather Forecast

Advertisements
Track Severe Weather on mobile